sensor_id;sensor_type;location;lat;lon;timestamp;pressure;altitude;pressure_sealevel;temperature
76476;BMP280;65308;50.078;14.854;2023-04-01T00:01:53;97471.25;;;10.36
76476;BMP280;65308;50.078;14.854;2023-04-01T00:04:20;97458.38;;;10.34
76476;BMP280;65308;50.078;14.854;2023-04-01T00:06:47;97460.59;;;10.42
76476;BMP280;65308;50.078;14.854;2023-04-01T00:09:14;97469.09;;;10.40
76476;BMP280;65308;50.078;14.854;2023-04-01T00:11:41;97466.41;;;10.34
76476;BMP280;65308;50.078;14.854;2023-04-01T00:14:07;97472.94;;;10.39
76476;BMP280;65308;50.078;14.854;2023-04-01T00:16:35;97475.34;;;10.31
76476;BMP280;65308;50.078;14.854;2023-04-01T00:19:02;97466.28;;;10.23
76476;BMP280;65308;50.078;14.854;2023-04-01T00:21:29;97472.66;;;10.31
76476;BMP280;65308;50.078;14.854;2023-04-01T00:23:56;97472.94;;;10.39
76476;BMP280;65308;50.078;14.854;2023-04-01T00:26:24;97467.13;;;10.41
76476;BMP280;65308;50.078;14.854;2023-04-01T00:28:52;97465.19;;;10.41
76476;BMP280;65308;50.078;14.854;2023-04-01T00:31:19;97468.09;;;10.38
76476;BMP280;65308;50.078;14.854;2023-04-01T00:33:47;97460.00;;;10.26
76476;BMP280;65308;50.078;14.854;2023-04-01T00:36:15;97473.28;;;10.15
76476;BMP280;65308;50.078;14.854;2023-04-01T00:38:42;97459.44;;;10.11
76476;BMP280;65308;50.078;14.854;2023-04-01T00:41:10;97461.38;;;10.16
76476;BMP280;65308;50.078;14.854;2023-04-01T00:43:39;97470.13;;;10.17
76476;BMP280;65308;50.078;14.854;2023-04-01T00:46:06;97465.34;;;10.26
76476;BMP280;65308;50.078;14.854;2023-04-01T00:48:35;97460.28;;;10.28
76476;BMP280;65308;50.078;14.854;2023-04-01T00:51:06;97456.88;;;10.33
76476;BMP280;65308;50.078;14.854;2023-04-01T00:53:38;97465.91;;;10.36
76476;BMP280;65308;50.078;14.854;2023-04-01T00:56:10;97456.38;;;10.29
76476;BMP280;65308;50.078;14.854;2023-04-01T00:58:41;97457.38;;;10.38
76476;BMP280;65308;50.078;14.854;2023-04-01T01:01:09;97456.97;;;10.45
76476;BMP280;65308;50.078;14.854;2023-04-01T01:03:36;97461.06;;;10.46
76476;BMP280;65308;50.078;14.854;2023-04-01T01:06:11;97458.91;;;10.44
76476;BMP280;65308;50.078;14.854;2023-04-01T01:11:32;97468.47;;;10.25
76476;BMP280;65308;50.078;14.854;2023-04-01T01:14:08;97462.97;;;10.34
76476;BMP280;65308;50.078;14.854;2023-04-01T01:16:42;97462.22;;;10.33
76476;BMP280;65308;50.078;14.854;2023-04-01T01:19:23;97459.38;;;10.43
76476;BMP280;65308;50.078;14.854;2023-04-01T01:22:10;97464.47;;;10.41
76476;BMP280;65308;50.078;14.854;2023-04-01T01:24:53;97465.22;;;10.47
76476;BMP280;65308;50.078;14.854;2023-04-01T01:27:22;97459.19;;;10.52
76476;BMP280;65308;50.078;14.854;2023-04-01T01:30:11;97457.50;;;10.60
76476;BMP280;65308;50.078;14.854;2023-04-01T01:35:44;97447.97;;;10.48
76476;BMP280;65308;50.078;14.854;2023-04-01T01:38:15;97455.28;;;10.53
76476;BMP280;65308;50.078;14.854;2023-04-01T01:40:44;97449.00;;;10.62
76476;BMP280;65308;50.078;14.854;2023-04-01T01:43:15;97450.44;;;10.51
76476;BMP280;65308;50.078;14.854;2023-04-01T01:45:46;97444.59;;;10.53
76476;BMP280;65308;50.078;14.854;2023-04-01T01:48:13;97448.97;;;10.50
76476;BMP280;65308;50.078;14.854;2023-04-01T01:50:43;97441.38;;;10.43
76476;BMP280;65308;50.078;14.854;2023-04-01T01:53:12;97439.75;;;10.51
76476;BMP280;65308;50.078;14.854;2023-04-01T01:55:41;97440.47;;;10.52
76476;BMP280;65308;50.078;14.854;2023-04-01T01:58:12;97448.94;;;10.45
76476;BMP280;65308;50.078;14.854;2023-04-01T02:00:41;97442.06;;;10.32
76476;BMP280;65308;50.078;14.854;2023-04-01T02:03:10;97439.88;;;10.36
76476;BMP280;65308;50.078;14.854;2023-04-01T02:05:39;97446.47;;;10.35
76476;BMP280;65308;50.078;14.854;2023-04-01T02:08:08;97454.03;;;10.37
76476;BMP280;65308;50.078;14.854;2023-04-01T02:10:39;97447.06;;;10.56
76476;BMP280;65308;50.078;14.854;2023-04-01T02:13:12;97451.38;;;10.48
76476;BMP280;65308;50.078;14.854;2023-04-01T02:15:43;97443.09;;;10.46
76476;BMP280;65308;50.078;14.854;2023-04-01T02:18:11;97461.34;;;10.48
76476;BMP280;65308;50.078;14.854;2023-04-01T02:20:40;97459.13;;;10.46
76476;BMP280;65308;50.078;14.854;2023-04-01T02:23:08;97459.56;;;10.33
76476;BMP280;65308;50.078;14.854;2023-04-01T02:25:37;97470.44;;;10.24
76476;BMP280;65308;50.078;14.854;2023-04-01T02:28:05;97467.06;;;10.29
76476;BMP280;65308;50.078;14.854;2023-04-01T02:30:35;97466.22;;;10.12
76476;BMP280;65308;50.078;14.854;2023-04-01T02:33:03;97475.19;;;10.09
76476;BMP280;65308;50.078;14.854;2023-04-01T02:35:30;97476.47;;;10.14
76476;BMP280;65308;50.078;14.854;2023-04-01T02:38:00;97477.03;;;10.29
76476;BMP280;65308;50.078;14.854;2023-04-01T02:40:28;97486.97;;;10.23
76476;BMP280;65308;50.078;14.854;2023-04-01T02:42:55;97482.63;;;10.31
76476;BMP280;65308;50.078;14.854;2023-04-01T02:45:22;97482.47;;;10.40
76476;BMP280;65308;50.078;14.854;2023-04-01T02:47:48;97494.06;;;10.31
76476;BMP280;65308;50.078;14.854;2023-04-01T02:50:15;97492.50;;;10.14
76476;BMP280;65308;50.078;14.854;2023-04-01T02:52:42;97500.00;;;10.15
76476;BMP280;65308;50.078;14.854;2023-04-01T02:55:09;97498.47;;;10.34
76476;BMP280;65308;50.078;14.854;2023-04-01T02:57:37;97497.47;;;10.32
76476;BMP280;65308;50.078;14.854;2023-04-01T03:00:04;97498.94;;;10.33
76476;BMP280;65308;50.078;14.854;2023-04-01T03:02:36;97503.50;;;10.27
76476;BMP280;65308;50.078;14.854;2023-04-01T03:05:04;97503.66;;;10.12
76476;BMP280;65308;50.078;14.854;2023-04-01T03:07:31;97504.22;;;10.22
76476;BMP280;65308;50.078;14.854;2023-04-01T03:09:57;97501.28;;;10.20
76476;BMP280;65308;50.078;14.854;2023-04-01T03:12:24;97499.75;;;10.13
76476;BMP280;65308;50.078;14.854;2023-04-01T03:14:52;97507.91;;;9.98
76476;BMP280;65308;50.078;14.854;2023-04-01T03:17:19;97502.16;;;9.79
76476;BMP280;65308;50.078;14.854;2023-04-01T03:19:45;97508.56;;;9.87
76476;BMP280;65308;50.078;14.854;2023-04-01T03:22:12;97506.56;;;9.82
76476;BMP280;65308;50.078;14.854;2023-04-01T03:24:39;97511.91;;;9.82
76476;BMP280;65308;50.078;14.854;2023-04-01T03:27:05;97513.13;;;9.87
76476;BMP280;65308;50.078;14.854;2023-04-01T03:29:32;97511.09;;;10.02
76476;BMP280;65308;50.078;14.854;2023-04-01T03:32:00;97512.81;;;10.05
76476;BMP280;65308;50.078;14.854;2023-04-01T03:34:27;97511.38;;;10.04
76476;BMP280;65308;50.078;14.854;2023-04-01T03:36:53;97513.34;;;9.83
76476;BMP280;65308;50.078;14.854;2023-04-01T03:39:20;97513.34;;;9.83
76476;BMP280;65308;50.078;14.854;2023-04-01T03:41:52;97510.09;;;10.00
76476;BMP280;65308;50.078;14.854;2023-04-01T03:44:18;97510.81;;;10.00
76476;BMP280;65308;50.078;14.854;2023-04-01T03:46:45;97520.53;;;9.98
76476;BMP280;65308;50.078;14.854;2023-04-01T03:49:13;97515.28;;;10.09
76476;BMP280;65308;50.078;14.854;2023-04-01T03:51:41;97513.75;;;9.97
76476;BMP280;65308;50.078;14.854;2023-04-01T03:54:09;97519.31;;;9.99
76476;BMP280;65308;50.078;14.854;2023-04-01T03:56:36;97511.13;;;10.08
76476;BMP280;65308;50.078;14.854;2023-04-01T03:59:04;97527.28;;;9.93
76476;BMP280;65308;50.078;14.854;2023-04-01T04:01:32;97523.31;;;10.09
76476;BMP280;65308;50.078;14.854;2023-04-01T04:03:59;97525.88;;;9.98
76476;BMP280;65308;50.078;14.854;2023-04-01T04:06:27;97532.13;;;9.89
76476;BMP280;65308;50.078;14.854;2023-04-01T04:08:54;97522.19;;;9.90
76476;BMP280;65308;50.078;14.854;2023-04-01T04:11:21;97527.84;;;9.97
76476;BMP280;65308;50.078;14.854;2023-04-01T04:13:48;97533.66;;;10.01
76476;BMP280;65308;50.078;14.854;2023-04-01T04:16:16;97533.50;;;10.10
76476;BMP280;65308;50.078;14.854;2023-04-01T04:18:47;97532.09;;;10.15
76476;BMP280;65308;50.078;14.854;2023-04-01T04:21:14;97536.59;;;10.03
76476;BMP280;65308;50.078;14.854;2023-04-01T04:23:42;97527.53;;;9.90
76476;BMP280;65308;50.078;14.854;2023-04-01T04:26:10;97530.34;;;9.80
76476;BMP280;65308;50.078;14.854;2023-04-01T04:28:37;97529.56;;;9.74
76476;BMP280;65308;50.078;14.854;2023-04-01T04:31:04;97537.00;;;9.91
76476;BMP280;65308;50.078;14.854;2023-04-01T04:33:31;97535.34;;;9.99
76476;BMP280;65308;50.078;14.854;2023-04-01T04:35:58;97540.47;;;9.97
76476;BMP280;65308;50.078;14.854;2023-04-01T04:38:25;97534.94;;;10.06
76476;BMP280;65308;50.078;14.854;2023-04-01T04:40:53;97541.22;;;10.03
76476;BMP280;65308;50.078;14.854;2023-04-01T04:43:21;97541.75;;;10.07
76476;BMP280;65308;50.078;14.854;2023-04-01T04:45:47;97546.56;;;10.29
76476;BMP280;65308;50.078;14.854;2023-04-01T04:48:15;97549.09;;;10.12
76476;BMP280;65308;50.078;14.854;2023-04-01T04:50:43;97548.94;;;10.21
76476;BMP280;65308;50.078;14.854;2023-04-01T04:53:10;97547.50;;;10.26
76476;BMP280;65308;50.078;14.854;2023-04-01T04:55:37;97544.53;;;10.18
76476;BMP280;65308;50.078;14.854;2023-04-01T04:58:06;97547.28;;;10.29
76476;BMP280;65308;50.078;14.854;2023-04-01T05:00:32;97547.53;;;10.31
76476;BMP280;65308;50.078;14.854;2023-04-01T05:03:00;97544.56;;;10.24
76476;BMP280;65308;50.078;14.854;2023-04-01T05:05:27;97544.84;;;10.31
76476;BMP280;65308;50.078;14.854;2023-04-01T05:07:54;97536.50;;;10.18
76476;BMP280;65308;50.078;14.854;2023-04-01T05:10:21;97551.59;;;10.21
76476;BMP280;65308;50.078;14.854;2023-04-01T05:12:47;97551.84;;;10.23
76476;BMP280;65308;50.078;14.854;2023-04-01T05:15:17;97559.97;;;10.34
76476;BMP280;65308;50.078;14.854;2023-04-01T05:17:48;97555.97;;;10.24
76476;BMP280;65308;50.078;14.854;2023-04-01T05:20:15;97568.50;;;10.39
76476;BMP280;65308;50.078;14.854;2023-04-01T05:22:42;97560.91;;;10.31
76476;BMP280;65308;50.078;14.854;2023-04-01T05:25:09;97566.34;;;10.43
76476;BMP280;65308;50.078;14.854;2023-04-01T05:27:36;97568.25;;;10.36
76476;BMP280;65308;50.078;14.854;2023-04-01T05:30:07;97570.63;;;10.29
76476;BMP280;65308;50.078;14.854;2023-04-01T05:32:36;97563.41;;;10.09
76476;BMP280;65308;50.078;14.854;2023-04-01T05:35:03;97562.31;;;10.21
76476;BMP280;65308;50.078;14.854;2023-04-01T05:37:33;97556.53;;;10.28
76476;BMP280;65308;50.078;14.854;2023-04-01T05:40:00;97563.13;;;10.39
76476;BMP280;65308;50.078;14.854;2023-04-01T05:42:26;97566.94;;;10.58
76476;BMP280;65308;50.078;14.854;2023-04-01T05:44:54;97567.81;;;10.44
76476;BMP280;65308;50.078;14.854;2023-04-01T05:47:21;97563.75;;;10.54
76476;BMP280;65308;50.078;14.854;2023-04-01T05:49:52;97566.72;;;10.62
76476;BMP280;65308;50.078;14.854;2023-04-01T05:52:18;97561.34;;;10.56
76476;BMP280;65308;50.078;14.854;2023-04-01T05:54:45;97560.56;;;10.50
76476;BMP280;65308;50.078;14.854;2023-04-01T05:57:12;97570.56;;;10.55
76476;BMP280;65308;50.078;14.854;2023-04-01T05:59:38;97573.13;;;10.75
76476;BMP280;65308;50.078;14.854;2023-04-01T06:04:41;97568.78;;;10.78
76476;BMP280;65308;50.078;14.854;2023-04-01T06:07:12;97571.47;;;10.83
76476;BMP280;65308;50.078;14.854;2023-04-01T06:09:40;97567.16;;;10.92
76476;BMP280;65308;50.078;14.854;2023-04-01T06:12:21;97576.66;;;10.98
76476;BMP280;65308;50.078;14.854;2023-04-01T06:14:56;97582.59;;;11.08
76476;BMP280;65308;50.078;14.854;2023-04-01T06:17:32;97564.56;;;11.08
76476;BMP280;65308;50.078;14.854;2023-04-01T06:20:09;97585.81;;;11.23
76476;BMP280;65308;50.078;14.854;2023-04-01T06:25:46;97588.59;;;11.57
76476;BMP280;65308;50.078;14.854;2023-04-01T06:34:16;97574.56;;;11.79
76476;BMP280;65308;50.078;14.854;2023-04-01T06:37:04;97585.78;;;12.00
76476;BMP280;65308;50.078;14.854;2023-04-01T06:39:44;97590.16;;;12.03
76476;BMP280;65308;50.078;14.854;2023-04-01T06:47:52;97581.66;;;12.10
76476;BMP280;65308;50.078;14.854;2023-04-01T06:50:43;97591.63;;;11.98
76476;BMP280;65308;50.078;14.854;2023-04-01T06:53:12;97589.16;;;11.89
76476;BMP280;65308;50.078;14.854;2023-04-01T06:58:10;97595.53;;;12.09
76476;BMP280;65308;50.078;14.854;2023-04-01T07:00:43;97589.44;;;12.25
76476;BMP280;65308;50.078;14.854;2023-04-01T07:03:20;97595.78;;;12.44
76476;BMP280;65308;50.078;14.854;2023-04-01T07:05:48;97606.00;;;12.74
76476;BMP280;65308;50.078;14.854;2023-04-01T07:08:18;97603.81;;;12.72
76476;BMP280;65308;50.078;14.854;2023-04-01T07:10:50;97600.13;;;12.75
76476;BMP280;65308;50.078;14.854;2023-04-01T07:13:24;97605.06;;;12.60
76476;BMP280;65308;50.078;14.854;2023-04-01T07:15:59;97603.59;;;12.53
76476;BMP280;65308;50.078;14.854;2023-04-01T07:18:36;97603.34;;;12.51
76476;BMP280;65308;50.078;14.854;2023-04-01T07:21:04;97605.06;;;12.60
76476;BMP280;65308;50.078;14.854;2023-04-01T07:23:36;97620.13;;;12.86
76476;BMP280;65308;50.078;14.854;2023-04-01T07:26:15;97617.13;;;13.06
76476;BMP280;65308;50.078;14.854;2023-04-01T07:28:42;97609.34;;;13.08
76476;BMP280;65308;50.078;14.854;2023-04-01T07:31:18;97625.41;;;13.19
76476;BMP280;65308;50.078;14.854;2023-04-01T07:36:35;97632.03;;;13.65
76476;BMP280;65308;50.078;14.854;2023-04-01T07:39:12;97629.66;;;13.56
76476;BMP280;65308;50.078;14.854;2023-04-01T07:41:51;97632.63;;;13.47
76476;BMP280;65308;50.078;14.854;2023-04-01T07:44:25;97638.81;;;13.31
76476;BMP280;65308;50.078;14.854;2023-04-01T07:47:22;97645.56;;;13.48
76476;BMP280;65308;50.078;14.854;2023-04-01T07:50:05;97645.91;;;13.17
76476;BMP280;65308;50.078;14.854;2023-04-01T07:55:09;97657.38;;;13.23
76476;BMP280;65308;50.078;14.854;2023-04-01T07:57:47;97654.41;;;13.38
76476;BMP280;65308;50.078;14.854;2023-04-01T08:05:45;97657.34;;;13.40
76476;BMP280;65308;50.078;14.854;2023-04-01T08:08:32;97657.56;;;13.42
76476;BMP280;65308;50.078;14.854;2023-04-01T08:13:55;97661.13;;;13.03
76476;BMP280;65308;50.078;14.854;2023-04-01T08:16:53;97667.41;;;13.11
76476;BMP280;65308;50.078;14.854;2023-04-01T08:22:12;97667.25;;;12.81
76476;BMP280;65308;50.078;14.854;2023-04-01T08:24:46;97673.59;;;12.67
76476;BMP280;65308;50.078;14.854;2023-04-01T08:27:33;97678.97;;;12.72
76476;BMP280;65308;50.078;14.854;2023-04-01T08:30:17;97681.41;;;12.70
76476;BMP280;65308;50.078;14.854;2023-04-01T08:32:58;97669.41;;;13.05
76476;BMP280;65308;50.078;14.854;2023-04-01T08:40:58;97666.44;;;13.25
76476;BMP280;65308;50.078;14.854;2023-04-01T09:17:01;97657.13;;;14.56
76476;BMP280;65308;50.078;14.854;2023-04-01T09:19:56;97660.03;;;14.83
76476;BMP280;65308;50.078;14.854;2023-04-01T09:22:56;97656.34;;;15.10
76476;BMP280;65308;50.078;14.854;2023-04-01T09:25:41;97665.69;;;15.47
76476;BMP280;65308;50.078;14.854;2023-04-01T09:28:16;97654.59;;;15.88
76476;BMP280;65308;50.078;14.854;2023-04-01T09:37:00;97658.06;;;17.27
76476;BMP280;65308;50.078;14.854;2023-04-01T09:39:58;97657.25;;;17.66
76476;BMP280;65308;50.078;14.854;2023-04-01T09:42:42;97660.06;;;17.82
76476;BMP280;65308;50.078;14.854;2023-04-01T09:45:25;97664.72;;;18.15
76476;BMP280;65308;50.078;14.854;2023-04-01T09:48:07;97663.72;;;18.26
76476;BMP280;65308;50.078;14.854;2023-04-01T09:50:49;97660.53;;;18.35
76476;BMP280;65308;50.078;14.854;2023-04-01T09:58:53;97671.50;;;18.09
76476;BMP280;65308;50.078;14.854;2023-04-01T10:01:38;97674.16;;;17.80
76476;BMP280;65308;50.078;14.854;2023-04-01T10:04:35;97667.91;;;17.72
76476;BMP280;65308;50.078;14.854;2023-04-01T10:07:48;97664.41;;;17.16
76476;BMP280;65308;50.078;14.854;2023-04-01T10:10:58;97673.13;;;17.22
76476;BMP280;65308;50.078;14.854;2023-04-01T10:13:56;97662.66;;;17.19
76476;BMP280;65308;50.078;14.854;2023-04-01T10:17:06;97660.00;;;17.40
76476;BMP280;65308;50.078;14.854;2023-04-01T10:20:00;97665.34;;;17.66
76476;BMP280;65308;50.078;14.854;2023-04-01T10:22:50;97654.41;;;17.24
76476;BMP280;65308;50.078;14.854;2023-04-01T10:28:36;97667.69;;;17.49
76476;BMP280;65308;50.078;14.854;2023-04-01T12:21:28;97662.56;;;16.71
76476;BMP280;65308;50.078;14.854;2023-04-01T12:54:47;97675.75;;;17.15
76476;BMP280;65308;50.078;14.854;2023-04-01T13:00:12;97677.00;;;16.61
76476;BMP280;65308;50.078;14.854;2023-04-01T13:02:54;97675.22;;;16.50
76476;BMP280;65308;50.078;14.854;2023-04-01T13:05:38;97675.72;;;16.48
76476;BMP280;65308;50.078;14.854;2023-04-01T13:08:20;97674.69;;;16.51
76476;BMP280;65308;50.078;14.854;2023-04-01T14:11:19;97692.38;;;17.79
76476;BMP280;65308;50.078;14.854;2023-04-01T14:14:12;97681.31;;;17.57
76476;BMP280;65308;50.078;14.854;2023-04-01T14:20:06;97681.59;;;17.66
76476;BMP280;65308;50.078;14.854;2023-04-01T14:25:43;97673.34;;;17.38
76476;BMP280;65308;50.078;14.854;2023-04-01T14:28:20;97683.09;;;17.41
76476;BMP280;65308;50.078;14.854;2023-04-01T14:31:23;97679.31;;;17.57
76476;BMP280;65308;50.078;14.854;2023-04-01T14:34:04;97674.41;;;17.56
76476;BMP280;65308;50.078;14.854;2023-04-01T14:36:43;97682.09;;;17.65
76476;BMP280;65308;50.078;14.854;2023-04-01T14:39:26;97686.75;;;17.77
76476;BMP280;65308;50.078;14.854;2023-04-01T14:42:07;97690.31;;;17.72
76476;BMP280;65308;50.078;14.854;2023-04-01T14:44:57;97684.91;;;17.59
76476;BMP280;65308;50.078;14.854;2023-04-01T14:47:42;97689.94;;;17.55
76476;BMP280;65308;50.078;14.854;2023-04-01T14:50:13;97684.72;;;17.44
76476;BMP280;65308;50.078;14.854;2023-04-01T14:52:47;97692.47;;;17.40
76476;BMP280;65308;50.078;14.854;2023-04-01T14:55:23;97688.50;;;17.41
76476;BMP280;65308;50.078;14.854;2023-04-01T14:58:09;97691.25;;;17.27
76476;BMP280;65308;50.078;14.854;2023-04-01T15:00:48;97686.69;;;17.09
76476;BMP280;65308;50.078;14.854;2023-04-01T15:03:22;97696.88;;;17.03
76476;BMP280;65308;50.078;14.854;2023-04-01T15:05:56;97687.31;;;16.89
76476;BMP280;65308;50.078;14.854;2023-04-01T15:08:29;97696.72;;;16.56
76476;BMP280;65308;50.078;14.854;2023-04-01T15:11:23;97703.28;;;16.60
76476;BMP280;65308;50.078;14.854;2023-04-01T15:14:08;97704.84;;;16.82
76476;BMP280;65308;50.078;14.854;2023-04-01T15:16:49;97697.44;;;16.43
76476;BMP280;65308;50.078;14.854;2023-04-01T15:19:30;97705.25;;;16.27
76476;BMP280;65308;50.078;14.854;2023-04-01T15:22:22;97689.81;;;16.28
76476;BMP280;65308;50.078;14.854;2023-04-01T15:27:45;97709.41;;;16.61
76476;BMP280;65308;50.078;14.854;2023-04-01T15:30:27;97702.25;;;16.76
76476;BMP280;65308;50.078;14.854;2023-04-01T15:33:10;97704.34;;;16.70
76476;BMP280;65308;50.078;14.854;2023-04-01T15:35:46;97701.41;;;16.55
76476;BMP280;65308;50.078;14.854;2023-04-01T15:38:25;97711.50;;;16.55
76476;BMP280;65308;50.078;14.854;2023-04-01T15:41:03;97714.59;;;16.45
76476;BMP280;65308;50.078;14.854;2023-04-01T15:43:40;97723.63;;;16.16
76476;BMP280;65308;50.078;14.854;2023-04-01T15:46:39;97720.44;;;15.98
76476;BMP280;65308;50.078;14.854;2023-04-01T15:49:36;97716.88;;;15.71
76476;BMP280;65308;50.078;14.854;2023-04-01T15:52:16;97721.09;;;15.67
76476;BMP280;65308;50.078;14.854;2023-04-01T15:55:01;97728.38;;;15.53
76476;BMP280;65308;50.078;14.854;2023-04-01T15:57:49;97725.81;;;15.61
76476;BMP280;65308;50.078;14.854;2023-04-01T16:00:27;97736.22;;;15.32
76476;BMP280;65308;50.078;14.854;2023-04-01T16:03:14;97743.56;;;15.32
76476;BMP280;65308;50.078;14.854;2023-04-01T16:05:54;97744.81;;;15.06
76476;BMP280;65308;50.078;14.854;2023-04-01T16:08:40;97742.09;;;15.06
76476;BMP280;65308;50.078;14.854;2023-04-01T16:11:15;97741.06;;;14.85
76476;BMP280;65308;50.078;14.854;2023-04-01T16:13:58;97756.22;;;14.88
76476;BMP280;65308;50.078;14.854;2023-04-01T16:27:40;97741.47;;;14.94
76476;BMP280;65308;50.078;14.854;2023-04-01T16:30:37;97757.00;;;14.83
76476;BMP280;65308;50.078;14.854;2023-04-01T16:36:10;97767.19;;;14.60
76476;BMP280;65308;50.078;14.854;2023-04-01T16:38:46;97757.25;;;14.49
76476;BMP280;65308;50.078;14.854;2023-04-01T16:41:36;97766.63;;;14.37
76476;BMP280;65308;50.078;14.854;2023-04-01T16:44:29;97760.38;;;13.70
76476;BMP280;65308;50.078;14.854;2023-04-01T16:50:07;97777.25;;;13.54
76476;BMP280;65308;50.078;14.854;2023-04-01T16:52:57;97777.28;;;13.43
76476;BMP280;65308;50.078;14.854;2023-04-01T16:55:35;97771.66;;;13.30
76476;BMP280;65308;50.078;14.854;2023-04-01T16:58:10;97777.56;;;13.22
76476;BMP280;65308;50.078;14.854;2023-04-01T17:00:55;97778.50;;;13.25
76476;BMP280;65308;50.078;14.854;2023-04-01T17:03:40;97780.97;;;13.17
76476;BMP280;65308;50.078;14.854;2023-04-01T17:06:33;97785.63;;;13.22
76476;BMP280;65308;50.078;14.854;2023-04-01T17:09:21;97785.13;;;13.18
76476;BMP280;65308;50.078;14.854;2023-04-01T17:12:04;97795.88;;;12.85
76476;BMP280;65308;50.078;14.854;2023-04-01T17:14:45;97794.41;;;12.84
76476;BMP280;65308;50.078;14.854;2023-04-01T17:17:25;97801.00;;;12.94
76476;BMP280;65308;50.078;14.854;2023-04-01T17:20:05;97805.13;;;12.72
76476;BMP280;65308;50.078;14.854;2023-04-01T17:22:44;97799.50;;;12.87
76476;BMP280;65308;50.078;14.854;2023-04-01T17:25:33;97815.41;;;12.85
76476;BMP280;65308;50.078;14.854;2023-04-01T17:28:16;97810.22;;;12.53
76476;BMP280;65308;50.078;14.854;2023-04-01T17:36:18;97814.84;;;12.53
76476;BMP280;65308;50.078;14.854;2023-04-01T17:39:17;97824.81;;;12.41
76476;BMP280;65308;50.078;14.854;2023-04-01T17:47:00;97834.59;;;12.56
76476;BMP280;65308;50.078;14.854;2023-04-01T17:54:35;97844.63;;;12.55
76476;BMP280;65308;50.078;14.854;2023-04-01T18:12:31;97861.78;;;12.15
76476;BMP280;65308;50.078;14.854;2023-04-01T18:15:21;97865.38;;;12.00
76476;BMP280;65308;50.078;14.854;2023-04-01T18:18:01;97867.19;;;11.83
76476;BMP280;65308;50.078;14.854;2023-04-01T18:20:40;97875.84;;;11.98
76476;BMP280;65308;50.078;14.854;2023-04-01T18:23:19;97875.84;;;11.98
76476;BMP280;65308;50.078;14.854;2023-04-01T18:33:41;97901.16;;;11.97
76476;BMP280;65308;50.078;14.854;2023-04-01T18:36:21;97895.66;;;11.75
76476;BMP280;65308;50.078;14.854;2023-04-01T18:38:54;97908.25;;;11.63
76476;BMP280;65308;50.078;14.854;2023-04-01T18:41:30;97896.81;;;11.68
76476;BMP280;65308;50.078;14.854;2023-04-01T18:44:11;97906.75;;;11.62
76476;BMP280;65308;50.078;14.854;2023-04-01T18:46:49;97909.97;;;11.66
76476;BMP280;65308;50.078;14.854;2023-04-01T18:49:27;97916.81;;;11.67
76476;BMP280;65308;50.078;14.854;2023-04-01T18:51:57;97920.03;;;11.45
76476;BMP280;65308;50.078;14.854;2023-04-01T18:54:27;97922.66;;;11.40
76476;BMP280;65308;50.078;14.854;2023-04-01T18:57:03;97927.28;;;11.39
76476;BMP280;65308;50.078;14.854;2023-04-01T18:59:37;97920.41;;;11.32
76476;BMP280;65308;50.078;14.854;2023-04-01T19:02:27;97929.94;;;11.13
76476;BMP280;65308;50.078;14.854;2023-04-01T19:07:51;97928.25;;;10.90
76476;BMP280;65308;50.078;14.854;2023-04-01T19:10:37;97927.09;;;10.76
76476;BMP280;65308;50.078;14.854;2023-04-01T19:13:13;97935.31;;;10.72
76476;BMP280;65308;50.078;14.854;2023-04-01T19:15:48;97928.72;;;10.68
76476;BMP280;65308;50.078;14.854;2023-04-01T19:18:36;97930.16;;;10.48
76476;BMP280;65308;50.078;14.854;2023-04-01T19:21:12;97938.16;;;10.48
76476;BMP280;65308;50.078;14.854;2023-04-01T19:24:02;97938.94;;;10.49
76476;BMP280;65308;50.078;14.854;2023-04-01T19:26:39;97941.59;;;10.49
76476;BMP280;65308;50.078;14.854;2023-04-01T19:29:16;97941.66;;;10.54
76476;BMP280;65308;50.078;14.854;2023-04-01T19:31:53;97947.19;;;10.66
76476;BMP280;65308;50.078;14.854;2023-04-01T19:34:26;97949.56;;;10.64
76476;BMP280;65308;50.078;14.854;2023-04-01T19:36:59;97946.94;;;10.69
76476;BMP280;65308;50.078;14.854;2023-04-01T19:39:39;97951.03;;;10.65
76476;BMP280;65308;50.078;14.854;2023-04-01T19:42:14;97948.78;;;10.78
76476;BMP280;65308;50.078;14.854;2023-04-01T19:44:56;97960.78;;;10.82
76476;BMP280;65308;50.078;14.854;2023-04-01T19:47:44;97961.66;;;10.79
76476;BMP280;65308;50.078;14.854;2023-04-01T19:50:26;97963.69;;;10.84
76476;BMP280;65308;50.078;14.854;2023-04-01T19:52:56;97960.03;;;10.82
76476;BMP280;65308;50.078;14.854;2023-04-01T19:55:34;97970.97;;;11.04
76476;BMP280;65308;50.078;14.854;2023-04-01T19:58:05;97971.97;;;11.07
76476;BMP280;65308;50.078;14.854;2023-04-01T20:00:39;97974.53;;;10.96
76476;BMP280;65308;50.078;14.854;2023-04-01T20:03:16;97974.72;;;10.92
76476;BMP280;65308;50.078;14.854;2023-04-01T20:06:00;97970.53;;;10.86
76476;BMP280;65308;50.078;14.854;2023-04-01T20:08:35;97970.47;;;10.80
76476;BMP280;65308;50.078;14.854;2023-04-01T20:11:29;97974.94;;;10.89
76476;BMP280;65308;50.078;14.854;2023-04-01T20:14:04;97973.19;;;10.86
76476;BMP280;65308;50.078;14.854;2023-04-01T20:16:53;97975.41;;;10.87
76476;BMP280;65308;50.078;14.854;2023-04-01T20:19:28;97982.56;;;10.75
76476;BMP280;65308;50.078;14.854;2023-04-01T20:21:58;97981.63;;;10.78
76476;BMP280;65308;50.078;14.854;2023-04-01T20:24:30;97984.56;;;10.80
76476;BMP280;65308;50.078;14.854;2023-04-01T20:27:09;97994.56;;;10.80
76476;BMP280;65308;50.078;14.854;2023-04-01T20:29:47;97989.38;;;10.76
76476;BMP280;65308;50.078;14.854;2023-04-01T20:32:37;97998.69;;;10.81
76476;BMP280;65308;50.078;14.854;2023-04-01T20:35:30;97993.34;;;10.81
76476;BMP280;65308;50.078;14.854;2023-04-01T20:38:19;97995.94;;;10.96
76476;BMP280;65308;50.078;14.854;2023-04-01T20:40:51;97996.88;;;10.93
76476;BMP280;65308;50.078;14.854;2023-04-01T20:43:33;97994.25;;;10.98
76476;BMP280;65308;50.078;14.854;2023-04-01T20:46:09;98002.31;;;11.19
76476;BMP280;65308;50.078;14.854;2023-04-01T20:48:50;97997.50;;;11.02
76476;BMP280;65308;50.078;14.854;2023-04-01T20:51:24;98002.78;;;10.97